Time;durP1;ratioP1;P1;durP2;ratioP2;P2;SDS_P1;SDS_P2;PMS_P1;PMS_P2;Temp;Humidity;BMP_temperature;BMP_pressure;BME280_temperature;BME280_humidity;BME280_pressure;Samples;Min_cycle;Max_cycle;Signal;HPM_P1;HPM_P2
2022/03/16 00:00:15;;;;;;;112.32;38.72;;;6.50;83.10;;;;;;4986331;28;20211;-88
2022/03/16 00:02:46;;;;;;;121.43;43.00;;;6.50;82.90;;;;;;5004186;28;20210;-88
2022/03/16 00:05:15;;;;;;;102.00;38.10;;;6.50;82.70;;;;;;4989132;28;20217;-89
2022/03/16 00:07:43;;;;;;;63.50;31.30;;;6.40;82.60;;;;;;4989548;28;20213;-90
2022/03/16 00:10:12;;;;;;;89.85;30.08;;;6.30;82.80;;;;;;4988485;28;20246;-88
2022/03/16 00:12:43;;;;;;;79.53;31.80;;;6.30;82.70;;;;;;4992370;28;20234;-91
2022/03/16 00:15:12;;;;;;;79.32;31.30;;;6.20;82.70;;;;;;4988656;28;20666;-88
2022/03/16 00:17:42;;;;;;;64.00;30.50;;;6.20;82.60;;;;;;5004307;28;20211;-89
2022/03/16 00:20:12;;;;;;;42.47;28.00;;;6.10;82.60;;;;;;4989855;28;20202;-88
2022/03/16 00:22:41;;;;;;;49.78;30.38;;;6.00;82.60;;;;;;5004413;28;20202;-89
2022/03/16 00:25:10;;;;;;;155.30;61.75;;;6.00;82.90;;;;;;4993682;28;20408;-88
2022/03/16 00:27:39;;;;;;;143.85;70.43;;;6.00;83.00;;;;;;4987824;28;20645;-86
2022/03/16 00:30:10;;;;;;;131.82;61.28;;;6.00;82.80;;;;;;5001428;28;20651;-87
2022/03/16 00:32:37;;;;;;;90.93;48.33;;;6.00;82.90;;;;;;5000507;28;20290;-88
2022/03/16 00:35:06;;;;;;;60.50;36.03;;;6.00;83.00;;;;;;4987047;28;20233;-87
2022/03/16 00:37:35;;;;;;;43.67;28.65;;;6.10;83.10;;;;;;5000568;28;20223;-90
2022/03/16 00:40:03;;;;;;;55.10;31.00;;;6.10;83.10;;;;;;4986912;28;20199;-90
2022/03/16 00:42:31;;;;;;;70.15;36.45;;;6.20;83.10;;;;;;4996366;28;20210;-89
2022/03/16 00:45:00;;;;;;;58.55;37.35;;;6.20;82.90;;;;;;4994046;28;20210;-90
2022/03/16 00:47:29;;;;;;;81.30;37.65;;;6.20;83.00;;;;;;5007992;28;20501;-89
2022/03/16 00:49:59;;;;;;;71.07;33.28;;;6.20;82.90;;;;;;4990423;28;20273;-89
2022/03/16 00:52:27;;;;;;;80.88;31.75;;;6.20;82.80;;;;;;4990527;28;20245;-89
2022/03/16 00:54:55;;;;;;;92.43;32.08;;;6.20;82.80;;;;;;5006305;28;20540;-90
2022/03/16 00:57:23;;;;;;;83.85;33.03;;;6.20;82.60;;;;;;5011274;28;20203;-89
2022/03/16 00:59:51;;;;;;;157.50;40.78;;;6.20;82.40;;;;;;5008766;28;20692;-86
2022/03/16 01:02:19;;;;;;;121.78;37.78;;;6.10;82.40;;;;;;4999797;28;20229;-88
2022/03/16 01:04:50;;;;;;;115.80;34.90;;;6.00;82.30;;;;;;5007830;28;20199;-86
2022/03/16 01:07:18;;;;;;;88.82;31.83;;;6.00;82.30;;;;;;4990283;28;20202;-85
2022/03/16 01:09:47;;;;;;;65.90;32.92;;;6.00;82.30;;;;;;4991259;28;20852;-91
2022/03/16 01:12:15;;;;;;;85.72;41.22;;;5.90;82.20;;;;;;5001777;28;20714;-91
2022/03/16 01:14:44;;;;;;;75.80;39.22;;;5.90;82.40;;;;;;4994843;28;20199;-88
2022/03/16 01:17:12;;;;;;;83.05;35.25;;;5.90;82.60;;;;;;4992289;28;20230;-89
2022/03/16 01:19:42;;;;;;;44.60;30.20;;;5.90;82.60;;;;;;5008472;28;20210;-90
2022/03/16 01:22:12;;;;;;;37.83;27.33;;;6.00;82.50;;;;;;4991154;28;20233;-88
2022/03/16 01:24:40;;;;;;;67.53;28.02;;;6.00;82.40;;;;;;4993833;28;20325;-88
2022/03/16 01:27:08;;;;;;;108.63;33.42;;;6.00;82.50;;;;;;4997918;28;20207;-88
2022/03/16 01:29:36;;;;;;;149.80;31.90;;;6.00;82.30;;;;;;5008258;28;20203;-88
2022/03/16 01:32:05;;;;;;;72.03;29.98;;;5.90;82.10;;;;;;5009536;28;20313;-87
2022/03/16 01:34:36;;;;;;;107.78;33.60;;;5.90;82.00;;;;;;5004192;28;20253;-84
2022/03/16 01:37:05;;;;;;;51.55;32.13;;;5.80;82.00;;;;;;4988163;28;21154;-84
2022/03/16 01:39:34;;;;;;;47.70;30.88;;;5.80;82.00;;;;;;4990829;28;20683;-88
2022/03/16 01:42:04;;;;;;;43.55;27.02;;;5.80;82.20;;;;;;4989943;28;20222;-86
2022/03/16 01:44:43;;;;;;;45.97;29.58;;;5.80;82.30;;;;;;4987895;28;20199;-89
2022/03/16 01:47:12;;;;;;;128.38;34.10;;;5.90;82.40;;;;;;4989841;28;20245;-91
2022/03/16 01:49:41;;;;;;;107.05;39.67;;;5.90;82.40;;;;;;5005003;28;20210;-88
2022/03/16 01:52:14;;;;;;;62.17;36.35;;;5.90;82.20;;;;;;5003720;28;20239;-87
2022/03/16 01:54:44;;;;;;;51.92;32.97;;;5.90;82.20;;;;;;5002669;28;20206;-86
2022/03/16 01:57:12;;;;;;;63.70;30.20;;;5.90;82.20;;;;;;5005056;28;20271;-87
2022/03/16 01:59:42;;;;;;;46.20;30.75;;;5.90;82.20;;;;;;5006151;28;20208;-90
2022/03/16 02:02:11;;;;;;;101.30;31.35;;;6.00;82.20;;;;;;5012989;28;20239;-88
2022/03/16 02:04:41;;;;;;;47.97;32.60;;;6.00;82.20;;;;;;5014312;28;20199;-90
2022/03/16 02:07:09;;;;;;;90.18;32.63;;;6.00;82.10;;;;;;4997911;28;20301;-89
2022/03/16 02:09:38;;;;;;;131.75;36.08;;;6.00;82.10;;;;;;5013412;28;20207;-89
2022/03/16 02:12:14;;;;;;;53.35;33.85;;;6.00;82.10;;;;;;5000613;28;20288;-90
2022/03/16 02:14:42;;;;;;;55.88;32.28;;;6.00;82.00;;;;;;4995445;28;20297;-90
2022/03/16 02:17:10;;;;;;;51.13;30.20;;;6.00;82.20;;;;;;4999345;28;20230;-87
2022/03/16 02:19:39;;;;;;;216.18;40.05;;;6.10;82.20;;;;;;5000842;28;20234;-89
2022/03/16 02:22:10;;;;;;;102.07;32.53;;;6.10;82.20;;;;;;4998028;28;20230;-88
2022/03/16 02:24:43;;;;;;;87.20;32.25;;;6.10;82.00;;;;;;4998562;28;20218;-88
2022/03/16 02:27:12;;;;;;;96.40;33.20;;;6.00;82.00;;;;;;4994802;28;20266;-88
2022/03/16 02:29:40;;;;;;;127.82;35.65;;;6.00;81.90;;;;;;5000909;28;20274;-89
2022/03/16 02:32:09;;;;;;;219.57;41.58;;;6.00;82.00;;;;;;4988526;28;20238;-89
2022/03/16 02:34:37;;;;;;;130.57;38.05;;;6.00;81.90;;;;;;4991449;28;20206;-89
2022/03/16 02:37:06;;;;;;;106.53;37.70;;;5.90;81.80;;;;;;5007056;28;20290;-89
2022/03/16 02:39:34;;;;;;;66.47;36.65;;;5.80;81.80;;;;;;4992281;28;20645;-89
2022/03/16 02:42:04;;;;;;;108.32;42.88;;;5.80;81.80;;;;;;4991770;28;20947;-89
2022/03/16 02:44:32;;;;;;;93.30;41.20;;;5.80;81.90;;;;;;4990658;28;20203;-88
2022/03/16 02:47:01;;;;;;;68.97;38.13;;;5.80;82.00;;;;;;5005662;28;20226;-88
2022/03/16 02:49:31;;;;;;;81.90;33.63;;;5.70;82.00;;;;;;4989800;28;20207;-88
2022/03/16 02:51:59;;;;;;;100.47;32.15;;;5.70;82.10;;;;;;4995665;28;20607;-89
2022/03/16 02:54:28;;;;;;;144.65;34.92;;;5.70;82.00;;;;;;5005328;28;20236;-89
2022/03/16 02:56:57;;;;;;;112.45;34.45;;;5.70;81.90;;;;;;4990124;28;20696;-89
2022/03/16 02:59:27;;;;;;;70.22;29.33;;;5.70;81.80;;;;;;4990123;28;20207;-88
2022/03/16 03:01:55;;;;;;;95.90;28.23;;;5.60;81.60;;;;;;5002138;28;20237;-88
2022/03/16 03:04:25;;;;;;;54.92;27.23;;;5.50;81.90;;;;;;4990580;28;20222;-88
2022/03/16 03:06:54;;;;;;;39.45;27.80;;;5.50;82.00;;;;;;4990299;28;20206;-88
2022/03/16 03:09:23;;;;;;;94.82;35.20;;;5.50;82.00;;;;;;4992988;28;20210;-89
2022/03/16 03:11:51;;;;;;;130.43;33.53;;;5.50;82.00;;;;;;4993913;28;20232;-90
2022/03/16 03:14:19;;;;;;;86.95;30.00;;;5.50;81.90;;;;;;5001680;28;20203;-90
2022/03/16 03:16:48;;;;;;;52.78;29.73;;;5.50;81.90;;;;;;4986826;28;20238;-90
2022/03/16 03:19:22;;;;;;;81.57;30.23;;;5.50;82.00;;;;;;5002001;28;20301;-86
2022/03/16 03:21:50;;;;;;;70.00;31.27;;;5.50;82.00;;;;;;4983983;28;20219;-86
2022/03/16 03:24:18;;;;;;;53.05;27.23;;;5.50;82.00;;;;;;4994684;28;20453;-89
2022/03/16 03:26:46;;;;;;;72.50;28.85;;;5.50;82.00;;;;;;4989184;28;20205;-89
2022/03/16 03:29:15;;;;;;;65.88;24.42;;;5.50;82.20;;;;;;4989488;28;20644;-87
2022/03/16 03:31:43;;;;;;;49.60;26.33;;;5.50;82.10;;;;;;5004360;28;20245;-88
2022/03/16 03:34:12;;;;;;;62.20;24.90;;;5.60;82.20;;;;;;4993562;28;20294;-90
2022/03/16 03:36:41;;;;;;;47.10;23.80;;;5.60;82.00;;;;;;5007169;28;20237;-89
2022/03/16 03:39:09;;;;;;;74.75;27.90;;;5.60;82.00;;;;;;4990861;28;20221;-90
2022/03/16 03:41:38;;;;;;;62.80;27.95;;;5.60;81.90;;;;;;4989496;28;20885;-90
2022/03/16 03:44:07;;;;;;;102.95;29.35;;;5.50;81.80;;;;;;4989250;28;20214;-90
2022/03/16 03:46:35;;;;;;;54.45;26.25;;;5.50;81.90;;;;;;4992030;28;20803;-90
2022/03/16 03:49:04;;;;;;;66.95;29.73;;;5.50;81.60;;;;;;4992601;28;20314;-89
2022/03/16 03:51:33;;;;;;;44.20;26.02;;;5.40;81.80;;;;;;5006523;28;20219;-89
2022/03/16 03:54:01;;;;;;;64.28;26.65;;;5.40;81.90;;;;;;4989613;28;20203;-91
2022/03/16 03:56:29;;;;;;;41.08;23.63;;;5.40;81.90;;;;;;4991206;28;20203;-89
2022/03/16 03:58:57;;;;;;;51.00;24.20;;;5.40;82.00;;;;;;4990629;28;20542;-91
2022/03/16 04:01:25;;;;;;;38.85;23.88;;;5.50;82.00;;;;;;5002989;28;20593;-86
2022/03/16 04:03:53;;;;;;;99.68;27.55;;;5.50;82.00;;;;;;4984740;28;20219;-85
2022/03/16 04:06:21;;;;;;;69.00;28.15;;;5.50;81.80;;;;;;5001338;28;20202;-88
2022/03/16 04:08:50;;;;;;;76.97;31.05;;;5.40;81.70;;;;;;4987999;28;20237;-87
2022/03/16 04:11:18;;;;;;;62.97;24.98;;;5.40;81.60;;;;;;5003423;28;20583;-87
2022/03/16 04:13:46;;;;;;;108.57;40.35;;;5.30;81.50;;;;;;4987668;28;20211;-88
2022/03/16 04:16:14;;;;;;;64.18;27.55;;;5.30;81.60;;;;;;5002878;28;20242;-88
2022/03/16 04:18:42;;;;;;;71.70;32.67;;;5.30;81.50;;;;;;4987957;28;20210;-88
2022/03/16 04:21:10;;;;;;;47.03;28.13;;;5.20;81.50;;;;;;5003756;28;20238;-88
2022/03/16 04:23:38;;;;;;;50.38;25.75;;;5.20;81.70;;;;;;4987338;28;20191;-88
2022/03/16 04:26:07;;;;;;;46.92;24.90;;;5.20;81.70;;;;;;4986149;28;20346;-87
2022/03/16 04:28:35;;;;;;;49.38;25.92;;;5.20;81.70;;;;;;4988185;28;20207;-86
2022/03/16 04:31:04;;;;;;;46.00;26.45;;;5.20;81.60;;;;;;5001277;28;20242;-85
2022/03/16 04:33:33;;;;;;;75.07;27.30;;;5.20;81.30;;;;;;5000563;28;20672;-85
2022/03/16 04:36:01;;;;;;;88.78;25.10;;;5.10;81.20;;;;;;4986863;28;20210;-84
2022/03/16 04:38:29;;;;;;;27.83;20.88;;;5.00;81.30;;;;;;4994760;28;20206;-84
2022/03/16 04:40:57;;;;;;;31.25;22.17;;;5.00;81.30;;;;;;5001124;28;20226;-84
2022/03/16 04:43:26;;;;;;;34.30;21.92;;;5.00;81.60;;;;;;4978664;28;20201;-88
2022/03/16 04:45:54;;;;;;;54.72;23.25;;;5.00;81.70;;;;;;5003848;28;20234;-88
2022/03/16 04:48:22;;;;;;;61.15;23.65;;;5.00;81.60;;;;;;5005001;28;20206;-88
2022/03/16 04:50:50;;;;;;;73.93;27.70;;;5.00;81.40;;;;;;4989116;28;20622;-88
2022/03/16 04:53:18;;;;;;;71.13;24.48;;;5.00;81.30;;;;;;4988214;28;20217;-89
2022/03/16 04:55:46;;;;;;;63.88;24.27;;;4.90;81.30;;;;;;4989930;28;20214;-88
2022/03/16 04:58:14;;;;;;;38.72;23.75;;;4.90;81.30;;;;;;4996560;28;20213;-88
2022/03/16 05:00:44;;;;;;;40.33;24.13;;;4.90;81.30;;;;;;4986439;28;20333;-85
2022/03/16 05:03:15;;;;;;;70.63;25.30;;;4.90;81.30;;;;;;4985426;28;20680;-88
2022/03/16 05:05:44;;;;;;;74.85;30.02;;;4.90;81.30;;;;;;4994237;28;20294;-88
2022/03/16 05:08:12;;;;;;;73.82;28.35;;;4.90;81.20;;;;;;4987924;28;20286;-88
2022/03/16 05:10:41;;;;;;;57.88;27.85;;;4.90;81.30;;;;;;4990203;28;20226;-87
2022/03/16 05:13:08;;;;;;;134.98;35.80;;;4.90;81.40;;;;;;4984842;28;20215;-87
2022/03/16 05:15:38;;;;;;;79.80;25.30;;;4.90;81.20;;;;;;4983228;28;20230;-88
2022/03/16 05:18:07;;;;;;;88.65;24.98;;;4.90;81.00;;;;;;4987234;28;20570;-87
2022/03/16 05:20:37;;;;;;;53.03;23.45;;;4.80;81.10;;;;;;5003092;28;20582;-87
2022/03/16 05:23:07;;;;;;;83.80;25.70;;;4.80;81.30;;;;;;4986969;28;20728;-87
2022/03/16 05:25:36;;;;;;;58.28;24.45;;;4.80;81.40;;;;;;4985853;28;20223;-87
2022/03/16 05:28:05;;;;;;;54.67;22.55;;;4.80;81.20;;;;;;4989420;28;20210;-87
2022/03/16 05:30:34;;;;;;;58.95;22.52;;;4.80;81.30;;;;;;4992914;28;20238;-87
2022/03/16 05:33:02;;;;;;;58.50;26.80;;;4.80;81.20;;;;;;4990441;28;20226;-88
2022/03/16 05:35:32;;;;;;;105.55;26.88;;;4.70;81.20;;;;;;4998097;28;20211;-88
2022/03/16 05:38:02;;;;;;;49.10;21.95;;;4.70;81.20;;;;;;4989738;28;20214;-86
2022/03/16 05:40:33;;;;;;;46.97;23.17;;;4.70;80.90;;;;;;4990510;28;20634;-87
2022/03/16 05:43:01;;;;;;;55.40;25.13;;;4.60;81.00;;;;;;4991397;28;20198;-89
2022/03/16 05:45:29;;;;;;;94.07;30.17;;;4.60;81.10;;;;;;4984793;28;20230;-87
2022/03/16 05:47:57;;;;;;;36.85;26.17;;;4.50;81.10;;;;;;4986183;28;20857;-86
2022/03/16 05:50:28;;;;;;;51.38;25.67;;;4.50;81.10;;;;;;4986005;28;20253;-84
2022/03/16 05:52:58;;;;;;;34.90;23.77;;;4.60;81.30;;;;;;4986177;28;20222;-84
2022/03/16 05:55:26;;;;;;;74.78;28.20;;;4.60;81.20;;;;;;4988126;28;20638;-85
2022/03/16 05:57:54;;;;;;;42.33;25.20;;;4.60;81.20;;;;;;5000649;28;20196;-87
2022/03/16 06:00:23;;;;;;;57.92;25.20;;;4.60;81.00;;;;;;4986078;28;20195;-84
2022/03/16 06:02:51;;;;;;;40.83;24.48;;;4.60;81.20;;;;;;4985431;28;20214;-87
2022/03/16 06:05:24;;;;;;;43.60;24.50;;;4.60;81.20;;;;;;4987897;28;20229;-86
2022/03/16 06:07:53;;;;;;;52.22;24.88;;;4.60;81.10;;;;;;5004383;28;20207;-87
2022/03/16 06:10:22;;;;;;;34.90;22.52;;;4.60;81.10;;;;;;4992331;28;20651;-86
2022/03/16 06:12:55;;;;;;;33.30;22.08;;;4.60;81.10;;;;;;5004188;28;20701;-88
2022/03/16 06:15:25;;;;;;;37.08;23.67;;;4.50;81.00;;;;;;5005133;28;20261;-88
2022/03/16 06:17:53;;;;;;;49.13;30.02;;;4.60;81.10;;;;;;5003457;28;20668;-88
2022/03/16 06:20:21;;;;;;;61.20;28.90;;;4.60;81.10;;;;;;5006751;28;20212;-88
2022/03/16 06:22:49;;;;;;;43.95;28.77;;;4.60;81.20;;;;;;4991140;28;20206;-86
2022/03/16 06:25:17;;;;;;;44.13;29.38;;;4.60;81.20;;;;;;4990046;28;20593;-87
2022/03/16 06:27:47;;;;;;;47.75;28.85;;;4.70;81.20;;;;;;4992159;28;20207;-88
2022/03/16 06:30:15;;;;;;;39.72;24.88;;;4.70;81.20;;;;;;4997999;28;20787;-87
2022/03/16 06:32:45;;;;;;;39.75;26.90;;;4.70;81.10;;;;;;4988200;28;20260;-87
2022/03/16 06:35:13;;;;;;;38.05;25.70;;;4.70;81.10;;;;;;4993575;28;20244;-88
2022/03/16 06:37:41;;;;;;;37.88;23.38;;;4.80;81.10;;;;;;4992680;28;20207;-88
2022/03/16 06:40:11;;;;;;;38.75;24.33;;;4.80;81.10;;;;;;4993302;28;20217;-88
2022/03/16 06:42:48;;;;;;;56.97;26.48;;;4.80;81.00;;;;;;5004795;28;20302;-89
2022/03/16 06:45:16;;;;;;;44.95;26.52;;;4.80;81.00;;;;;;4986525;28;20321;-88
2022/03/16 06:47:44;;;;;;;41.70;25.02;;;4.80;80.80;;;;;;5004396;28;20726;-88
2022/03/16 06:50:13;;;;;;;50.83;29.10;;;4.70;80.80;;;;;;4986260;28;20210;-87
2022/03/16 06:52:41;;;;;;;42.38;28.13;;;4.70;80.90;;;;;;4990420;28;20862;-88
2022/03/16 06:55:10;;;;;;;39.97;27.00;;;4.70;80.90;;;;;;5005380;28;20226;-87
2022/03/16 06:57:38;;;;;;;45.47;28.02;;;4.70;81.00;;;;;;4987544;28;20203;-86
2022/03/16 07:00:09;;;;;;;42.53;26.33;;;4.80;81.00;;;;;;5002403;28;20213;-86
2022/03/16 07:02:51;;;;;;;38.20;24.42;;;4.80;81.00;;;;;;4986203;28;20237;-86
2022/03/16 07:05:19;;;;;;;33.88;23.58;;;4.80;81.00;;;;;;5002683;28;20206;-85
2022/03/16 07:07:49;;;;;;;65.43;24.25;;;4.80;81.00;;;;;;5000649;28;20209;-86
2022/03/16 07:10:17;;;;;;;37.85;22.98;;;4.80;81.00;;;;;;4986575;28;20214;-86
2022/03/16 07:12:45;;;;;;;46.72;21.67;;;4.80;81.00;;;;;;4984754;28;20199;-86
2022/03/16 07:15:15;;;;;;;49.15;24.70;;;4.80;80.90;;;;;;4987950;28;20293;-86
2022/03/16 07:17:43;;;;;;;67.70;30.58;;;4.80;80.90;;;;;;5002734;28;20242;-86
2022/03/16 07:20:12;;;;;;;73.28;30.75;;;4.80;80.80;;;;;;4988420;28;20696;-86
2022/03/16 07:22:41;;;;;;;93.30;30.38;;;4.80;80.90;;;;;;5002092;28;20794;-86
2022/03/16 07:25:21;;;;;;;80.00;28.58;;;4.80;80.80;;;;;;4988041;28;20281;-86
2022/03/16 07:27:49;;;;;;;71.25;30.40;;;4.80;80.90;;;;;;4987249;28;20210;-86
2022/03/16 07:30:19;;;;;;;62.25;28.77;;;4.80;80.90;;;;;;5002979;28;20206;-85
2022/03/16 07:32:48;;;;;;;78.20;33.03;;;4.80;80.90;;;;;;4984036;28;20194;-84
2022/03/16 07:35:16;;;;;;;41.95;28.63;;;4.90;81.00;;;;;;4991666;28;20219;-86
2022/03/16 07:37:44;;;;;;;47.22;29.05;;;4.90;81.00;;;;;;4985573;28;20213;-85
2022/03/16 07:40:13;;;;;;;47.40;30.33;;;4.90;81.10;;;;;;4986608;28;20218;-86
2022/03/16 07:42:46;;;;;;;52.85;31.38;;;4.90;81.20;;;;;;4989094;28;20307;-85
2022/03/16 07:45:18;;;;;;;49.67;30.45;;;5.00;81.30;;;;;;4986920;28;20245;-86
2022/03/16 07:47:49;;;;;;;55.35;33.17;;;5.10;81.20;;;;;;5003040;28;20302;-86
2022/03/16 07:50:17;;;;;;;51.53;31.67;;;5.10;81.30;;;;;;4987307;28;20198;-87
2022/03/16 07:52:45;;;;;;;65.03;33.65;;;5.10;81.40;;;;;;4986473;28;20592;-85
2022/03/16 07:55:14;;;;;;;50.42;30.25;;;5.20;81.40;;;;;;4987523;28;20228;-85
2022/03/16 07:57:43;;;;;;;44.70;29.05;;;5.20;81.40;;;;;;4987212;28;20217;-86
2022/03/16 08:00:13;;;;;;;46.63;30.08;;;5.30;81.50;;;;;;5001905;28;20272;-85
2022/03/16 08:02:43;;;;;;;44.78;26.42;;;5.30;81.60;;;;;;4998957;28;20219;-86
2022/03/16 08:05:13;;;;;;;40.70;26.73;;;5.40;81.70;;;;;;4985758;28;20203;-86
2022/03/16 08:07:41;;;;;;;43.22;24.40;;;5.50;81.60;;;;;;4996762;28;20207;-87
2022/03/16 08:10:10;;;;;;;40.92;27.30;;;5.50;81.60;;;;;;4987363;28;20285;-87
2022/03/16 08:12:38;;;;;;;46.42;29.33;;;5.50;81.60;;;;;;5000043;28;20206;-86
2022/03/16 08:15:07;;;;;;;38.97;26.38;;;5.60;81.80;;;;;;4990084;28;20640;-85
2022/03/16 08:17:34;;;;;;;40.08;25.88;;;5.70;81.80;;;;;;4985633;28;20919;-86
2022/03/16 08:20:03;;;;;;;36.95;25.13;;;5.70;81.80;;;;;;4986050;28;20210;-85
2022/03/16 08:22:33;;;;;;;53.58;28.60;;;5.80;81.90;;;;;;5001947;28;20203;-86
2022/03/16 08:25:04;;;;;;;41.78;27.50;;;5.90;81.80;;;;;;4996755;28;20211;-85
2022/03/16 08:27:33;;;;;;;42.45;27.40;;;5.90;81.80;;;;;;4985736;28;20217;-85
2022/03/16 08:30:01;;;;;;;39.97;25.48;;;5.90;81.80;;;;;;4987207;28;20211;-87
2022/03/16 08:32:29;;;;;;;40.33;26.00;;;6.00;81.80;;;;;;4985525;28;20242;-84
2022/03/16 08:34:57;;;;;;;39.00;25.90;;;6.00;82.00;;;;;;4981708;28;20579;-85
2022/03/16 08:37:25;;;;;;;36.42;24.63;;;6.10;82.10;;;;;;4985848;28;20203;-84
2022/03/16 08:39:54;;;;;;;37.17;25.52;;;6.10;82.20;;;;;;5001675;28;20210;-85
2022/03/16 08:42:22;;;;;;;38.88;25.55;;;6.20;82.30;;;;;;4989959;28;20226;-86
2022/03/16 08:44:53;;;;;;;43.67;29.50;;;6.20;82.30;;;;;;4987297;28;20268;-86
2022/03/16 08:47:21;;;;;;;38.40;27.67;;;6.30;82.40;;;;;;4996152;28;20235;-88
2022/03/16 08:49:51;;;;;;;38.38;26.17;;;6.30;82.50;;;;;;5002447;28;20244;-87
2022/03/16 08:52:20;;;;;;;36.28;25.27;;;6.40;82.50;;;;;;4988079;28;20230;-87
2022/03/16 08:54:50;;;;;;;40.38;27.85;;;6.40;82.70;;;;;;4986138;28;20804;-86
2022/03/16 08:57:21;;;;;;;46.35;27.85;;;6.50;82.80;;;;;;5001269;28;20630;-86
2022/03/16 08:59:50;;;;;;;50.25;30.60;;;6.60;83.00;;;;;;5002305;28;20210;-86
2022/03/16 09:02:18;;;;;;;45.72;29.13;;;6.70;84.00;;;;;;5003068;28;20246;-86
2022/03/16 09:04:47;;;;;;;41.58;27.05;;;6.80;83.20;;;;;;5005449;28;20237;-87
2022/03/16 09:07:14;;;;;;;40.08;27.45;;;6.90;83.80;;;;;;5005791;28;20206;-86
2022/03/16 09:09:42;;;;;;;44.95;29.67;;;7.00;83.70;;;;;;4990761;28;20691;-87
2022/03/16 09:12:11;;;;;;;46.47;27.75;;;7.10;83.60;;;;;;4990674;28;20227;-85
2022/03/16 09:14:41;;;;;;;43.38;28.00;;;7.20;83.70;;;;;;4988138;28;20246;-87
2022/03/16 09:17:10;;;;;;;47.30;27.90;;;7.30;83.90;;;;;;4990145;28;20243;-85
2022/03/16 09:19:39;;;;;;;41.90;27.40;;;7.40;83.90;;;;;;4998897;28;20214;-84
2022/03/16 09:22:07;;;;;;;41.25;26.42;;;7.50;83.90;;;;;;4990575;28;20230;-84
2022/03/16 09:24:35;;;;;;;36.17;24.50;;;7.50;84.00;;;;;;4989025;28;20665;-85
2022/03/16 09:27:04;;;;;;;37.90;23.40;;;7.60;84.20;;;;;;4990172;28;20203;-85
2022/03/16 09:29:32;;;;;;;37.80;24.33;;;7.70;84.10;;;;;;4989785;28;20210;-85
2022/03/16 09:32:09;;;;;;;37.47;25.87;;;7.80;84.40;;;;;;4992254;28;21090;-87
2022/03/16 09:34:38;;;;;;;33.77;23.80;;;7.90;84.20;;;;;;5004986;28;20488;-86
2022/03/16 09:37:07;;;;;;;42.20;27.25;;;8.00;84.40;;;;;;4989447;28;20453;-86
2022/03/16 09:39:36;;;;;;;36.85;25.52;;;8.10;84.40;;;;;;4990456;28;20203;-86
2022/03/16 09:42:05;;;;;;;36.88;24.70;;;8.10;84.40;;;;;;5005231;28;20245;-85
2022/03/16 09:44:33;;;;;;;38.70;25.20;;;8.20;84.40;;;;;;4988727;28;20195;-86
2022/03/16 09:47:03;;;;;;;32.90;22.77;;;8.30;84.40;;;;;;4992995;28;21006;-86
2022/03/16 09:49:32;;;;;;;33.00;22.27;;;8.40;84.40;;;;;;4992666;28;20458;-87
2022/03/16 09:52:01;;;;;;;34.80;23.70;;;8.50;84.40;;;;;;4997131;28;20482;-84
2022/03/16 09:54:29;;;;;;;33.13;21.50;;;8.60;84.30;;;;;;5003742;28;20532;-83
2022/03/16 09:56:57;;;;;;;30.63;21.87;;;8.70;84.30;;;;;;4990738;28;20499;-84
2022/03/16 09:59:25;;;;;;;32.10;23.33;;;8.70;84.10;;;;;;5005399;28;20457;-87
2022/03/16 10:02:04;;;;;;;33.47;20.93;;;8.80;84.10;;;;;;4989860;28;20532;-85
2022/03/16 10:04:36;;;;;;;31.27;22.37;;;8.90;83.80;;;;;;5003852;28;20917;-86
2022/03/16 10:07:06;;;;;;;30.13;22.97;;;9.00;83.80;;;;;;4988387;28;20449;-86
2022/03/16 10:15:18;;;;;;;29.63;22.33;;;9.20;83.60;;;;;;4963987;28;20860;-87
2022/03/16 10:17:49;;;;;;;32.97;23.73;;;9.30;83.60;;;;;;4988912;28;20438;-85
2022/03/16 10:20:27;;;;;;;33.07;22.30;;;9.30;83.40;;;;;;4989628;28;20465;-86
2022/03/16 10:22:57;;;;;;;32.67;22.50;;;9.30;83.40;;;;;;5001915;28;20465;-86
2022/03/16 10:25:25;;;;;;;33.87;22.40;;;9.40;83.30;;;;;;5002748;28;20472;-87
2022/03/16 10:28:10;;;;;;;32.43;22.40;;;9.40;83.30;;;;;;4989755;28;20458;-84
2022/03/16 10:30:56;;;;;;;27.93;20.70;;;9.50;83.20;;;;;;4985859;28;20540;-84
2022/03/16 10:33:26;;;;;;;29.07;21.47;;;9.50;83.00;;;;;;4986291;28;20453;-86
2022/03/16 10:35:58;;;;;;;35.73;23.47;;;9.60;82.70;;;;;;4988048;28;20474;-84
2022/03/16 10:38:26;;;;;;;35.40;24.73;;;9.60;82.80;;;;;;4987724;28;20465;-85
2022/03/16 10:46:34;;;;;;;32.37;23.10;;;9.70;82.80;;;;;;4990039;28;20489;-86
2022/03/16 10:47:03;;;;;;;30.00;21.53;;;9.80;82.60;;;;;;4941976;28;20481;-86
2022/03/16 10:49:34;;;;;;;27.27;21.87;;;9.80;82.10;;;;;;4991778;28;20458;-85
2022/03/16 10:52:06;;;;;;;30.93;22.77;;;9.90;82.10;;;;;;5003484;28;20991;-85
2022/03/16 10:54:35;;;;;;;32.00;22.60;;;9.90;82.10;;;;;;4986795;28;20458;-85
2022/03/16 10:57:08;;;;;;;26.77;20.00;;;10.00;82.10;;;;;;4988127;28;20490;-85
2022/03/16 10:59:36;;;;;;;29.97;21.40;;;10.10;81.90;;;;;;5002108;28;20468;-86
2022/03/16 11:02:06;;;;;;;37.43;24.37;;;10.10;81.90;;;;;;5002535;28;21092;-86
2022/03/16 11:04:35;;;;;;;30.37;22.87;;;10.20;81.60;;;;;;4988450;28;21318;-85
2022/03/16 11:07:07;;;;;;;33.87;23.40;;;10.20;81.50;;;;;;5002446;28;20465;-86
2022/03/16 11:09:36;;;;;;;34.00;23.70;;;10.20;81.50;;;;;;4987332;28;20462;-85
2022/03/16 11:14:58;;;;;;;41.93;25.40;;;10.30;81.20;;;;;;4994486;28;20466;-83
2022/03/16 11:17:26;;;;;;;32.27;22.30;;;10.30;81.30;;;;;;4986533;28;21046;-83
2022/03/16 11:19:56;;;;;;;31.73;22.27;;;10.40;81.20;;;;;;4987901;28;20585;-83
2022/03/16 11:22:29;;;;;;;29.03;21.37;;;10.40;81.10;;;;;;4983532;28;20478;-83
2022/03/16 11:25:01;;;;;;;28.90;22.53;;;10.50;80.90;;;;;;4985609;28;20519;-83
2022/03/16 11:27:51;;;;;;;26.90;20.50;;;10.50;80.80;;;;;;4980266;28;20454;-83
2022/03/16 11:30:29;;;;;;;33.80;24.30;;;10.60;80.70;;;;;;4985514;28;20536;-83
2022/03/16 11:33:02;;;;;;;34.80;24.80;;;10.60;80.80;;;;;;5001613;28;20995;-83
2022/03/16 11:35:32;;;;;;;32.83;24.33;;;10.70;80.70;;;;;;4987439;28;20457;-83
2022/03/16 11:38:09;;;;;;;34.30;24.47;;;10.70;80.70;;;;;;4985225;28;20476;-84
2022/03/16 11:40:40;;;;;;;33.50;23.23;;;10.70;80.40;;;;;;4987200;28;20466;-83
2022/03/16 11:43:16;;;;;;;30.87;22.27;;;10.80;80.30;;;;;;4986659;28;20446;-83
2022/03/16 11:45:48;;;;;;;33.20;24.33;;;10.90;79.80;;;;;;4989519;28;20500;-82
2022/03/16 11:48:39;;;;;;;30.63;23.10;;;10.90;80.00;;;;;;4985185;28;20461;-83
2022/03/16 11:51:26;;;;;;;30.87;21.80;;;11.00;80.00;;;;;;4993075;28;20492;-84
2022/03/16 11:54:39;;;;;;;34.00;23.80;;;11.00;79.90;;;;;;5000057;28;20520;-82
2022/03/16 11:57:09;;;;;;;32.33;20.37;;;11.10;80.00;;;;;;4987003;28;20524;-84
2022/03/16 11:59:44;;;;;;;32.20;23.23;;;11.20;79.50;;;;;;4987222;28;20445;-82
2022/03/16 12:02:22;;;;;;;33.20;23.17;;;11.20;79.20;;;;;;4982894;28;20857;-83
2022/03/16 12:04:56;;;;;;;28.90;22.13;;;11.30;79.10;;;;;;4991892;28;20610;-82
2022/03/16 12:07:26;;;;;;;30.53;23.03;;;11.30;78.90;;;;;;5000330;28;20456;-83
2022/03/16 12:10:03;;;;;;;34.23;23.53;;;11.30;78.60;;;;;;4986681;28;20453;-83
2022/03/16 12:15:23;;;;;;;33.73;24.00;;;11.40;78.40;;;;;;4985503;28;20954;-84
2022/03/16 12:18:31;;;;;;;29.53;21.30;;;11.50;78.10;;;;;;4986237;28;20474;-83
2022/03/16 12:21:10;;;;;;;28.50;20.73;;;11.50;78.10;;;;;;4983900;28;20473;-85
2022/03/16 12:23:54;;;;;;;31.47;21.90;;;11.50;77.70;;;;;;4986202;28;20460;-84
2022/03/16 12:26:26;;;;;;;29.57;23.00;;;11.60;77.70;;;;;;4984238;28;20599;-84
2022/03/16 12:29:07;;;;;;;32.53;23.13;;;11.60;77.50;;;;;;5000590;28;21241;-84
2022/03/16 12:31:42;;;;;;;30.03;24.20;;;11.60;77.20;;;;;;4983650;28;21078;-85
2022/03/16 12:34:15;;;;;;;33.63;24.10;;;11.70;77.40;;;;;;4981541;28;20482;-83
2022/03/16 12:36:43;;;;;;;30.83;23.20;;;11.70;77.10;;;;;;4989851;28;20477;-84
2022/03/16 12:39:13;;;;;;;32.43;23.90;;;11.80;77.10;;;;;;4992092;28;20877;-83
2022/03/16 12:44:42;;;;;;;31.03;23.73;;;11.90;76.60;;;;;;4992367;28;20504;-83
2022/03/16 12:47:19;;;;;;;33.60;25.50;;;11.90;76.60;;;;;;4991399;28;20544;-82
2022/03/16 12:49:48;;;;;;;33.00;22.10;;;11.90;76.30;;;;;;5000992;28;20551;-83
2022/03/16 12:52:18;;;;;;;36.13;24.27;;;12.00;76.30;;;;;;5006282;28;20854;-81
2022/03/16 12:54:46;;;;;;;30.57;24.67;;;12.00;76.10;;;;;;5006547;28;20461;-81
2022/03/16 12:57:16;;;;;;;30.57;23.93;;;12.10;76.10;;;;;;4991235;28;21080;-82
2022/03/16 12:59:48;;;;;;;31.27;23.43;;;12.10;75.90;;;;;;4993065;28;20453;-84
2022/03/16 13:02:20;;;;;;;34.90;23.13;;;12.10;76.00;;;;;;5005413;28;20493;-82
2022/03/16 13:04:52;;;;;;;30.63;24.10;;;12.10;75.60;;;;;;4992498;28;20461;-82